Time;durP1;ratioP1;P1;durP2;ratioP2;P2;SDS_P1;SDS_P2;PMS_P1;PMS_P2;Temp;Humidity;BMP_temperature;BMP_pressure;BME280_temperature;BME280_humidity;BME280_pressure;Samples;Min_cycle;Max_cycle;Signal;HPM_P1;HPM_P2
2023/12/19 00:00:44;;;;;;;1278.38;980.30;;;8.30;99.90;;;;;;5056234;28;20076;-85
2023/12/19 00:03:10;;;;;;;1332.13;999.90;;;8.30;99.90;;;;;;5055771;28;20070;-85
2023/12/19 00:05:35;;;;;;;1351.63;996.78;;;8.30;99.90;;;;;;5056052;28;20115;-85
2023/12/19 00:08:01;;;;;;;1201.18;968.60;;;8.30;99.90;;;;;;5055524;28;20056;-85
2023/12/19 00:10:27;;;;;;;1342.05;992.63;;;8.30;99.90;;;;;;5072648;28;20426;-85
2023/12/19 00:12:57;;;;;;;1430.95;999.55;;;8.70;99.90;;;;;;5073964;28;20457;-84
2023/12/19 00:15:23;;;;;;;1225.00;972.67;;;8.60;99.90;;;;;;5056087;28;20119;-84
2023/12/19 00:17:49;;;;;;;1272.30;979.50;;;8.30;99.90;;;;;;5056671;28;20068;-84
2023/12/19 00:20:14;;;;;;;1226.85;967.95;;;8.30;99.90;;;;;;5072089;28;20615;-84
2023/12/19 00:22:40;;;;;;;1516.93;999.90;;;8.30;99.90;;;;;;5055350;28;20040;-84
2023/12/19 00:25:06;;;;;;;1282.30;987.65;;;8.30;99.90;;;;;;5056219;28;20127;-84
2023/12/19 00:27:32;;;;;;;1469.95;998.40;;;8.30;99.90;;;;;;5072677;28;20056;-84
2023/12/19 00:29:58;;;;;;;1315.10;991.13;;;9.00;99.90;;;;;;5055726;28;20045;-84
2023/12/19 00:32:23;;;;;;;1372.57;996.45;;;8.30;99.90;;;;;;5056334;28;20060;-84
2023/12/19 00:34:49;;;;;;;1327.30;997.53;;;8.40;99.90;;;;;;5060887;28;20036;-84
2023/12/19 00:37:14;;;;;;;1345.50;992.88;;;8.40;99.90;;;;;;5073468;28;20553;-84
2023/12/19 00:39:40;;;;;;;1325.78;987.67;;;8.40;99.90;;;;;;5064866;28;20040;-84
2023/12/19 00:42:06;;;;;;;1414.40;998.08;;;8.50;99.90;;;;;;5074065;28;20033;-84
2023/12/19 00:44:31;;;;;;;1342.05;995.17;;;8.40;99.90;;;;;;5056991;28;20036;-84
2023/12/19 00:46:57;;;;;;;1393.80;988.22;;;8.80;99.90;;;;;;5056003;28;20040;-84
2023/12/19 00:49:22;;;;;;;1240.53;985.25;;;8.50;99.90;;;;;;5072658;28;20079;-84
2023/12/19 00:51:48;;;;;;;1236.97;972.40;;;8.40;99.90;;;;;;5055314;28;20032;-84
2023/12/19 00:54:14;;;;;;;1183.60;965.63;;;8.40;99.90;;;;;;5071891;28;20044;-84
2023/12/19 00:56:42;;;;;;;1339.45;989.05;;;8.80;99.90;;;;;;5054429;28;20051;-84
2023/12/19 00:59:08;;;;;;;1507.40;999.90;;;8.50;99.90;;;;;;5055258;28;20131;-84
2023/12/19 01:01:34;;;;;;;1275.13;981.13;;;8.90;99.90;;;;;;5054831;28;20033;-85
2023/12/19 01:04:00;;;;;;;1251.90;974.22;;;8.40;99.90;;;;;;5055599;28;20074;-85
2023/12/19 01:06:26;;;;;;;1317.03;993.13;;;8.50;99.90;;;;;;5054297;28;20029;-85
2023/12/19 01:08:53;;;;;;;1418.10;999.90;;;8.40;99.90;;;;;;5071924;28;20040;-85
2023/12/19 01:11:18;;;;;;;1172.93;972.60;;;9.00;99.90;;;;;;5070681;28;20048;-85
2023/12/19 01:13:45;;;;;;;1417.88;994.83;;;8.40;99.90;;;;;;5072341;28;20033;-85
2023/12/19 01:16:13;;;;;;;1434.35;994.08;;;8.70;99.90;;;;;;5058520;28;20036;-84
2023/12/19 01:18:39;;;;;;;1287.00;990.97;;;8.30;99.90;;;;;;5059728;28;20429;-84
2023/12/19 01:21:05;;;;;;;1289.85;987.72;;;8.40;99.90;;;;;;5075821;28;20047;-84
2023/12/19 01:23:30;;;;;;;1296.32;979.08;;;8.30;99.90;;;;;;5059701;28;20029;-84
2023/12/19 01:25:56;;;;;;;1289.75;979.15;;;8.30;99.90;;;;;;5059733;28;20504;-85
2023/12/19 01:28:21;;;;;;;1190.72;970.92;;;8.40;99.90;;;;;;5059507;28;20067;-85
2023/12/19 01:30:47;;;;;;;1314.97;996.00;;;8.30;99.90;;;;;;5060376;28;20033;-85
2023/12/19 01:33:13;;;;;;;1436.13;999.05;;;9.00;99.90;;;;;;5060193;28;20040;-85
2023/12/19 01:35:38;;;;;;;1336.35;991.97;;;8.30;99.90;;;;;;5074954;28;20038;-85
2023/12/19 01:38:04;;;;;;;1226.68;966.85;;;8.30;99.90;;;;;;5058923;28;20074;-85
2023/12/19 01:40:31;;;;;;;1346.55;998.67;;;8.90;99.90;;;;;;5058284;28;20481;-85
2023/12/19 01:43:00;;;;;;;1429.63;994.83;;;8.30;99.90;;;;;;5058878;28;20044;-85
2023/12/19 01:45:28;;;;;;;1360.35;997.97;;;9.00;99.90;;;;;;5059041;28;20199;-84
2023/12/19 01:47:53;;;;;;;1273.60;982.80;;;8.30;99.90;;;;;;5075869;28;20043;-85
2023/12/19 01:50:20;;;;;;;1284.47;989.63;;;8.60;99.90;;;;;;5057988;28;20037;-85
2023/12/19 01:52:57;;;;;;;1194.53;969.97;;;8.30;99.90;;;;;;5055660;28;20028;-84
2023/12/19 01:55:24;;;;;;;1315.28;986.30;;;9.00;99.90;;;;;;5056085;28;20047;-84
2023/12/19 01:57:50;;;;;;;1387.47;997.92;;;8.40;99.90;;;;;;5057897;28;20056;-84
2023/12/19 02:00:17;;;;;;;1351.10;984.22;;;8.30;99.90;;;;;;5059907;28;20040;-85
2023/12/19 02:02:44;;;;;;;1378.97;998.33;;;8.20;99.90;;;;;;5059287;28;20114;-85
2023/12/19 02:05:10;;;;;;;1521.75;999.72;;;9.00;99.90;;;;;;5076517;28;20044;-84
2023/12/19 02:07:36;;;;;;;1257.43;980.33;;;8.60;99.90;;;;;;5075236;28;20662;-84
2023/12/19 02:10:02;;;;;;;1357.68;988.95;;;8.40;99.90;;;;;;5059616;28;20033;-84
2023/12/19 02:12:27;;;;;;;1401.75;996.28;;;8.40;99.90;;;;;;5059428;28;20036;-84
2023/12/19 02:14:54;;;;;;;1283.18;997.90;;;8.40;99.90;;;;;;5075796;28;20040;-84
2023/12/19 02:17:21;;;;;;;1529.88;999.90;;;8.70;99.90;;;;;;5059504;28;20032;-84
2023/12/19 02:19:51;;;;;;;1326.10;992.65;;;8.40;99.90;;;;;;5058442;28;20032;-84
2023/12/19 02:22:17;;;;;;;1363.57;998.40;;;8.40;99.90;;;;;;5059927;28;20041;-84
2023/12/19 02:24:44;;;;;;;1336.50;988.15;;;8.40;99.90;;;;;;5059795;28;20063;-84
2023/12/19 02:27:11;;;;;;;1266.05;984.33;;;8.40;99.90;;;;;;5059028;28;20040;-84
2023/12/19 02:29:37;;;;;;;1375.68;992.28;;;8.90;99.90;;;;;;5059212;28;20037;-84
2023/12/19 02:32:02;;;;;;;1196.60;979.97;;;8.40;99.90;;;;;;5076792;28;20046;-84
2023/12/19 02:34:29;;;;;;;1347.15;998.72;;;8.40;99.90;;;;;;5061568;28;20111;-84
2023/12/19 02:36:55;;;;;;;1337.47;991.15;;;9.00;99.90;;;;;;5077561;28;20040;-84
2023/12/19 02:39:21;;;;;;;1252.38;990.85;;;8.40;99.90;;;;;;5066740;28;20468;-84
2023/12/19 02:41:46;;;;;;;1354.13;997.15;;;8.40;99.90;;;;;;5071866;28;20036;-84
2023/12/19 02:44:12;;;;;;;1444.20;993.50;;;9.30;99.90;;;;;;5070455;28;20333;-84
2023/12/19 02:46:38;;;;;;;1141.00;961.30;;;9.30;99.90;;;;;;5077699;28;20045;-84
2023/12/19 02:49:03;;;;;;;1126.10;959.25;;;9.00;99.90;;;;;;5059421;28;20442;-85
2023/12/19 02:51:30;;;;;;;1330.15;988.58;;;8.40;99.90;;;;;;5041315;28;20024;-85
2023/12/19 02:53:56;;;;;;;1267.75;986.72;;;8.30;99.90;;;;;;5056671;28;20047;-85
2023/12/19 02:56:22;;;;;;;1395.15;998.97;;;8.30;99.90;;;;;;5057921;28;20049;-85
2023/12/19 02:58:49;;;;;;;1348.47;999.42;;;8.80;99.90;;;;;;5073991;28;20040;-85
2023/12/19 03:01:14;;;;;;;1431.10;999.90;;;8.30;99.90;;;;;;5074065;28;20040;-85
2023/12/19 03:03:41;;;;;;;1397.75;994.78;;;8.30;99.90;;;;;;5056849;28;20041;-84
2023/12/19 03:06:07;;;;;;;1287.88;983.90;;;8.90;99.90;;;;;;5075196;28;20044;-84
2023/12/19 03:08:35;;;;;;;1314.57;995.80;;;8.30;99.90;;;;;;5074360;28;20040;-84
2023/12/19 03:11:00;;;;;;;1362.63;995.90;;;8.60;99.90;;;;;;5058425;28;20040;-84
2023/12/19 03:13:26;;;;;;;1306.70;997.42;;;9.10;99.90;;;;;;5057893;28;20578;-85
2023/12/19 03:15:52;;;;;;;1267.50;994.30;;;8.30;99.90;;;;;;5057447;28;20037;-85
2023/12/19 03:18:23;;;;;;;1386.70;999.90;;;8.70;99.90;;;;;;5058136;28;20564;-85
2023/12/19 03:20:49;;;;;;;1305.78;986.90;;;8.30;99.90;;;;;;5057423;28;20039;-84
2023/12/19 03:23:15;;;;;;;1449.03;999.30;;;8.20;99.90;;;;;;5057361;28;20028;-85
2023/12/19 03:25:41;;;;;;;1477.13;998.75;;;8.20;99.90;;;;;;5056244;28;20048;-85
2023/12/19 03:28:07;;;;;;;1413.43;996.00;;;8.20;99.90;;;;;;5057088;28;20089;-85
2023/12/19 03:30:32;;;;;;;1134.35;971.45;;;8.30;99.90;;;;;;5072991;28;20462;-85
2023/12/19 03:32:58;;;;;;;1168.70;981.72;;;8.60;99.90;;;;;;5057565;28;20037;-85
2023/12/19 03:35:23;;;;;;;1336.97;984.28;;;8.80;99.90;;;;;;5057280;28;20040;-85
2023/12/19 03:37:50;;;;;;;1186.18;975.97;;;8.20;99.90;;;;;;5054950;28;20111;-85
2023/12/19 03:40:16;;;;;;;1296.72;991.42;;;8.20;99.90;;;;;;5057526;28;20036;-85
2023/12/19 03:42:42;;;;;;;1343.72;997.25;;;8.10;99.90;;;;;;5056715;28;20038;-84
2023/12/19 03:45:08;;;;;;;1183.00;960.85;;;8.30;99.90;;;;;;5058269;28;20124;-84
2023/12/19 03:47:34;;;;;;;1360.07;993.88;;;8.10;99.90;;;;;;5074401;28;20033;-84
2023/12/19 03:50:00;;;;;;;1196.28;991.30;;;8.50;99.90;;;;;;5057044;28;20493;-84
2023/12/19 03:52:26;;;;;;;1201.53;975.28;;;8.10;99.90;;;;;;5056679;28;20035;-84
2023/12/19 03:54:52;;;;;;;1254.28;984.13;;;8.10;99.90;;;;;;5057883;28;20033;-84
2023/12/19 03:57:17;;;;;;;1422.22;997.08;;;8.10;99.90;;;;;;5056873;28;20044;-84
2023/12/19 03:59:44;;;;;;;1238.72;988.28;;;8.10;99.90;;;;;;5056632;28;20040;-84
2023/12/19 04:02:10;;;;;;;1311.40;997.42;;;8.60;99.90;;;;;;5058678;28;20036;-84
2023/12/19 04:04:36;;;;;;;1409.85;999.90;;;8.10;99.90;;;;;;5073847;28;20036;-84
2023/12/19 04:07:01;;;;;;;1178.63;983.13;;;8.10;99.90;;;;;;5058272;28;20032;-84
2023/12/19 04:09:27;;;;;;;1127.40;972.78;;;8.10;99.90;;;;;;5058320;28;20128;-84
2023/12/19 04:11:53;;;;;;;1106.65;958.92;;;8.30;99.90;;;;;;5058472;28;20028;-84
2023/12/19 04:14:19;;;;;;;1216.05;971.67;;;8.30;99.90;;;;;;5058604;28;20040;-84
2023/12/19 04:16:45;;;;;;;1415.18;997.35;;;8.00;99.90;;;;;;5058975;28;20037;-84
2023/12/19 04:19:10;;;;;;;1272.75;991.78;;;8.00;99.90;;;;;;5059502;28;20050;-84
2023/12/19 04:21:39;;;;;;;1204.35;986.90;;;8.60;99.90;;;;;;5058510;28;20557;-84
2023/12/19 04:24:05;;;;;;;1299.50;999.25;;;8.00;99.90;;;;;;5057572;28;20055;-84
2023/12/19 04:26:31;;;;;;;1187.85;985.10;;;8.00;99.90;;;;;;5057811;28;20045;-84
2023/12/19 04:28:57;;;;;;;1257.93;989.70;;;8.00;99.90;;;;;;5058598;28;20048;-84
2023/12/19 04:31:22;;;;;;;1392.45;996.58;;;8.00;99.90;;;;;;5059144;28;20060;-84
2023/12/19 04:33:48;;;;;;;1161.20;979.13;;;8.00;99.90;;;;;;5076942;28;20060;-84
2023/12/19 04:36:13;;;;;;;1179.93;977.65;;;8.00;99.90;;;;;;5063053;28;20479;-84
2023/12/19 04:38:39;;;;;;;1407.10;999.38;;;8.00;99.90;;;;;;5071366;28;20139;-84
2023/12/19 04:41:05;;;;;;;1185.00;982.00;;;8.30;99.90;;;;;;5086835;28;20117;-84
2023/12/19 04:43:34;;;;;;;1323.50;988.33;;;8.00;99.90;;;;;;5094604;28;20036;-84
2023/12/19 04:46:01;;;;;;;1307.18;995.28;;;8.00;99.90;;;;;;5061833;28;20412;-85
2023/12/19 04:48:27;;;;;;;1152.72;972.40;;;8.00;99.90;;;;;;5056310;28;20049;-84
2023/12/19 04:50:52;;;;;;;1314.47;996.85;;;8.00;99.90;;;;;;5058263;28;20041;-84
2023/12/19 04:53:19;;;;;;;1270.00;993.60;;;8.60;99.90;;;;;;5073502;28;20036;-84
2023/12/19 04:55:45;;;;;;;1241.38;988.08;;;8.70;99.90;;;;;;5057164;28;20498;-84
2023/12/19 04:58:10;;;;;;;1189.13;976.60;;;8.70;99.90;;;;;;5058223;28;20094;-84
2023/12/19 05:00:36;;;;;;;1138.90;969.60;;;7.90;99.90;;;;;;5072705;28;20040;-84
2023/12/19 05:03:03;;;;;;;1297.90;995.63;;;7.90;99.90;;;;;;5049137;28;20489;-84
2023/12/19 05:05:28;;;;;;;1139.43;987.58;;;7.90;99.90;;;;;;5056937;28;20408;-84
2023/12/19 05:07:54;;;;;;;1214.68;966.15;;;7.90;99.90;;;;;;5055305;28;20082;-85
2023/12/19 05:10:20;;;;;;;1109.03;966.15;;;8.70;99.90;;;;;;5056705;28;20028;-84
2023/12/19 05:12:45;;;;;;;1167.00;975.90;;;7.90;99.90;;;;;;5075229;28;20456;-84
2023/12/19 05:15:12;;;;;;;1117.22;970.97;;;8.30;99.90;;;;;;5057747;28;20037;-83
2023/12/19 05:17:38;;;;;;;1172.28;977.17;;;7.90;99.90;;;;;;5057421;28;20040;-84
2023/12/19 05:20:05;;;;;;;1250.43;986.75;;;8.30;99.90;;;;;;5058054;28;20033;-84
2023/12/19 05:22:31;;;;;;;1226.13;985.53;;;7.90;99.90;;;;;;5057834;28;20396;-83
2023/12/19 05:24:56;;;;;;;1232.28;996.40;;;7.90;99.90;;;;;;5058054;28;20054;-84
2023/12/19 05:27:22;;;;;;;1210.15;982.25;;;7.90;99.90;;;;;;5058033;28;20051;-84
2023/12/19 05:29:47;;;;;;;1135.93;987.47;;;7.90;99.90;;;;;;5074085;28;20078;-84
2023/12/19 05:32:13;;;;;;;1300.85;996.05;;;7.90;99.90;;;;;;5063404;28;20052;-83
2023/12/19 05:34:39;;;;;;;1100.63;966.05;;;7.90;99.90;;;;;;5082885;28;20508;-83
2023/12/19 05:37:04;;;;;;;1214.13;997.95;;;8.30;99.90;;;;;;5065209;28;20412;-83
2023/12/19 05:39:31;;;;;;;1217.57;988.88;;;7.90;99.90;;;;;;5047190;28;20207;-83
2023/12/19 05:41:57;;;;;;;1289.43;992.47;;;8.40;99.90;;;;;;5066445;28;20036;-83
2023/12/19 05:44:23;;;;;;;1220.97;990.47;;;8.80;99.90;;;;;;5066160;28;20037;-83
2023/12/19 05:46:50;;;;;;;1245.00;986.13;;;8.80;99.90;;;;;;5065808;28;20060;-83
2023/12/19 05:49:16;;;;;;;1381.10;999.60;;;8.80;99.90;;;;;;5064718;28;20032;-83
2023/12/19 05:51:41;;;;;;;1211.72;981.17;;;8.70;99.90;;;;;;5065548;28;20124;-83
2023/12/19 05:54:07;;;;;;;1243.82;998.85;;;8.70;99.90;;;;;;5081442;28;20036;-83
2023/12/19 05:56:33;;;;;;;1239.53;997.65;;;8.20;99.90;;;;;;5064893;28;20123;-83
2023/12/19 05:58:59;;;;;;;1193.00;967.63;;;8.20;99.90;;;;;;5079784;28;20119;-83
2023/12/19 06:01:25;;;;;;;1180.60;973.38;;;7.90;99.90;;;;;;5055889;28;20055;-85
2023/12/19 06:03:51;;;;;;;1195.68;995.28;;;7.90;99.90;;;;;;5059860;28;20042;-84
2023/12/19 06:06:17;;;;;;;1288.97;998.78;;;8.80;99.90;;;;;;5063083;28;20116;-83
2023/12/19 06:08:43;;;;;;;1181.55;984.60;;;8.30;99.90;;;;;;5063283;28;20393;-83
2023/12/19 06:11:12;;;;;;;1337.38;996.70;;;8.00;99.90;;;;;;5064297;28;20477;-83
2023/12/19 06:13:38;;;;;;;1131.18;982.83;;;8.20;99.90;;;;;;5063915;28;20044;-82
2023/12/19 06:16:05;;;;;;;1195.72;994.80;;;7.90;99.90;;;;;;5066072;28;20047;-83
2023/12/19 06:18:34;;;;;;;1180.75;991.75;;;7.90;99.90;;;;;;5068657;28;20515;-83
2023/12/19 06:21:00;;;;;;;1248.22;987.42;;;7.90;99.90;;;;;;5068669;28;20045;-83
2023/12/19 06:23:29;;;;;;;1230.63;987.80;;;8.00;99.90;;;;;;5068522;28;20044;-83
2023/12/19 06:25:57;;;;;;;1177.88;991.88;;;7.40;99.90;;;;;;5068119;28;20549;-83
2023/12/19 06:28:23;;;;;;;1130.55;984.00;;;8.00;99.90;;;;;;5068598;28;20263;-83
2023/12/19 06:30:49;;;;;;;1296.03;998.97;;;8.40;99.90;;;;;;5085117;28;20088;-83
2023/12/19 06:33:15;;;;;;;1103.60;975.60;;;8.60;99.90;;;;;;5067985;28;20033;-83
2023/12/19 06:35:44;;;;;;;1113.70;972.65;;;8.90;99.90;;;;;;5067418;28;20103;-83
2023/12/19 06:38:10;;;;;;;1349.72;996.92;;;8.80;99.90;;;;;;5057112;28;20039;-83
2023/12/19 06:40:36;;;;;;;1141.82;988.78;;;9.00;99.90;;;;;;5075435;28;20071;-83
2023/12/19 06:43:10;;;;;;;1271.00;998.40;;;8.40;99.90;;;;;;5093162;28;20040;-83
2023/12/19 06:45:36;;;;;;;1185.00;974.83;;;8.50;99.90;;;;;;5074786;28;20048;-83
2023/12/19 06:48:02;;;;;;;1281.72;997.38;;;8.60;99.90;;;;;;5068319;28;20067;-83
2023/12/19 06:50:28;;;;;;;1208.40;989.78;;;8.00;99.90;;;;;;5067667;28;20468;-83
2023/12/19 06:52:54;;;;;;;1158.78;980.45;;;8.00;99.90;;;;;;5066524;28;20071;-83
2023/12/19 06:55:21;;;;;;;1170.78;970.05;;;8.00;99.90;;;;;;5066978;28;20044;-83
2023/12/19 06:57:46;;;;;;;1182.03;983.17;;;8.50;99.90;;;;;;5066650;28;20033;-83
2023/12/19 07:00:13;;;;;;;1128.35;975.72;;;8.10;99.90;;;;;;5066998;28;20028;-83
2023/12/19 07:02:39;;;;;;;1235.65;987.15;;;8.10;99.90;;;;;;5067596;28;20041;-84
2023/12/19 07:05:05;;;;;;;1197.32;983.35;;;8.00;99.90;;;;;;5067535;28;20092;-83
2023/12/19 07:07:31;;;;;;;1205.47;987.67;;;8.30;99.90;;;;;;5083054;28;20032;-83
2023/12/19 07:10:01;;;;;;;1145.32;982.55;;;8.20;99.90;;;;;;5067325;28;20047;-83
2023/12/19 07:12:26;;;;;;;1198.85;990.58;;;8.90;99.90;;;;;;5066618;28;20504;-83
2023/12/19 07:14:52;;;;;;;1195.35;983.22;;;8.90;99.90;;;;;;5067468;28;20043;-83
2023/12/19 07:17:18;;;;;;;1123.50;976.30;;;8.70;99.90;;;;;;5066431;28;20037;-83
2023/12/19 07:19:44;;;;;;;1159.03;971.03;;;8.10;99.90;;;;;;5067660;28;20503;-83
2023/12/19 07:22:09;;;;;;;1156.78;985.55;;;8.40;99.90;;;;;;5066864;28;20032;-83
2023/12/19 07:24:35;;;;;;;1184.78;986.50;;;8.90;99.90;;;;;;5067416;28;20084;-83
2023/12/19 07:27:01;;;;;;;1169.55;985.25;;;8.40;99.90;;;;;;5084239;28;20291;-84
2023/12/19 07:29:27;;;;;;;1112.13;969.38;;;7.90;99.90;;;;;;5066329;28;20036;-82
2023/12/19 07:31:53;;;;;;;1167.38;982.58;;;9.10;99.90;;;;;;5066253;28;20037;-83
2023/12/19 07:34:18;;;;;;;1073.57;956.13;;;8.10;99.90;;;;;;5066323;28;20096;-83
2023/12/19 07:36:47;;;;;;;1137.68;970.40;;;8.10;99.90;;;;;;5084345;28;20036;-83
2023/12/19 07:39:14;;;;;;;1338.32;994.70;;;8.60;99.90;;;;;;5066127;28;20057;-83
2023/12/19 07:41:40;;;;;;;1170.47;989.10;;;8.20;99.90;;;;;;5066564;28;20036;-83
2023/12/19 07:44:14;;;;;;;1119.30;968.55;;;8.10;99.90;;;;;;5066676;28;20046;-84
2023/12/19 07:46:41;;;;;;;1098.97;969.90;;;8.70;99.90;;;;;;5082313;28;20094;-83
2023/12/19 07:49:07;;;;;;;1298.35;992.85;;;9.10;99.90;;;;;;5066544;28;20064;-83
2023/12/19 07:51:34;;;;;;;1111.60;975.10;;;8.20;99.90;;;;;;5083119;28;20040;-83
2023/12/19 07:53:59;;;;;;;1355.63;999.80;;;8.80;99.90;;;;;;5067133;28;20096;-83
2023/12/19 07:56:25;;;;;;;1203.05;971.90;;;8.50;99.90;;;;;;5066837;28;20048;-83
2023/12/19 07:58:54;;;;;;;1087.75;969.88;;;8.00;99.90;;;;;;5066336;28;20112;-83
2023/12/19 08:01:20;;;;;;;1217.35;984.75;;;8.00;99.90;;;;;;5065555;28;20043;-83
2023/12/19 08:03:46;;;;;;;1126.72;968.97;;;9.00;99.90;;;;;;5066292;28;20051;-83
2023/12/19 08:06:13;;;;;;;1213.85;971.63;;;7.60;99.90;;;;;;5083257;28;20044;-84
2023/12/19 08:08:40;;;;;;;1290.97;990.30;;;8.80;99.90;;;;;;5066201;28;20036;-84
2023/12/19 08:11:06;;;;;;;1275.68;992.17;;;9.00;99.90;;;;;;5066901;28;20032;-83
2023/12/19 08:13:34;;;;;;;1126.15;975.40;;;9.10;99.90;;;;;;5082724;28;20050;-83
2023/12/19 08:16:00;;;;;;;1226.65;987.25;;;8.10;99.90;;;;;;5065994;28;20100;-83
2023/12/19 08:18:31;;;;;;;1160.78;988.90;;;8.50;99.90;;;;;;5082395;28;20067;-83
2023/12/19 08:20:58;;;;;;;1262.22;990.90;;;8.40;99.90;;;;;;5082669;28;20037;-83
2023/12/19 08:23:23;;;;;;;1221.60;987.58;;;9.20;99.90;;;;;;5082747;28;20104;-83
2023/12/19 08:25:49;;;;;;;1116.57;983.90;;;9.20;99.90;;;;;;5065978;28;20049;-83
2023/12/19 08:28:15;;;;;;;1182.38;975.72;;;8.50;99.90;;;;;;5065446;28;20048;-83
2023/12/19 08:30:40;;;;;;;1247.30;990.63;;;8.60;99.90;;;;;;5066489;28;20120;-83
2023/12/19 08:33:06;;;;;;;1079.32;960.53;;;9.30;99.90;;;;;;5083722;28;20040;-83
2023/12/19 08:35:32;;;;;;;1204.03;980.53;;;9.30;99.90;;;;;;5066211;28;20108;-83
2023/12/19 08:37:58;;;;;;;1225.10;982.03;;;8.40;99.90;;;;;;5072735;28;20049;-83
2023/12/19 08:40:24;;;;;;;1243.18;990.70;;;8.60;99.90;;;;;;5072893;28;20033;-83
2023/12/19 08:42:50;;;;;;;1119.53;976.28;;;9.50;99.90;;;;;;5091160;28;20092;-83
2023/12/19 08:45:17;;;;;;;1078.90;961.33;;;9.10;99.90;;;;;;5072412;28;20044;-84
2023/12/19 08:47:44;;;;;;;1322.70;998.25;;;8.40;99.90;;;;;;5065966;28;20037;-83
2023/12/19 08:50:11;;;;;;;1304.50;989.58;;;9.10;99.90;;;;;;5065895;28;20062;-83
2023/12/19 08:52:37;;;;;;;1169.40;968.40;;;9.30;99.90;;;;;;5065925;28;20098;-83
2023/12/19 08:55:07;;;;;;;1271.82;996.25;;;8.50;99.90;;;;;;5066253;28;20613;-83
2023/12/19 08:57:51;;;;;;;1319.65;989.55;;;8.40;99.90;;;;;;5082789;28;20043;-83
2023/12/19 09:00:18;;;;;;;1119.88;964.05;;;8.40;99.90;;;;;;5065741;28;20449;-83
2023/12/19 09:02:45;;;;;;;1263.78;994.72;;;8.50;99.90;;;;;;5065780;28;20036;-83
2023/12/19 09:05:12;;;;;;;1278.72;988.72;;;9.30;99.90;;;;;;5082192;28;20075;-83
2023/12/19 09:07:39;;;;;;;1113.70;973.90;;;8.40;99.90;;;;;;5065519;28;20036;-83
2023/12/19 09:10:06;;;;;;;1182.22;972.70;;;9.50;99.90;;;;;;5066551;28;20040;-83
2023/12/19 09:12:33;;;;;;;1181.43;968.97;;;8.10;99.90;;;;;;5065911;28;20024;-83
2023/12/19 09:14:59;;;;;;;1107.32;961.90;;;9.40;99.90;;;;;;5081995;28;20036;-84
2023/12/19 09:17:25;;;;;;;1316.63;995.25;;;9.40;99.90;;;;;;5065580;28;20037;-83
2023/12/19 09:19:50;;;;;;;1133.10;963.70;;;7.90;99.90;;;;;;5045729;28;20044;-83
2023/12/19 09:22:16;;;;;;;1179.15;955.20;;;8.80;99.90;;;;;;5081042;28;20040;-83
2023/12/19 09:24:42;;;;;;;1071.63;952.15;;;9.00;99.90;;;;;;5066072;28;20120;-83
2023/12/19 09:27:08;;;;;;;1119.80;969.75;;;9.50;99.90;;;;;;5066314;28;20045;-83
2023/12/19 09:29:34;;;;;;;1148.80;968.85;;;7.90;99.90;;;;;;5065241;28;20070;-83
2023/12/19 09:32:01;;;;;;;1281.60;992.28;;;8.90;99.90;;;;;;5066046;28;20036;-83
2023/12/19 09:34:27;;;;;;;1380.05;997.42;;;9.10;99.90;;;;;;5066017;28;20106;-83
2023/12/19 09:36:53;;;;;;;1303.38;994.38;;;8.60;99.90;;;;;;5069181;28;20036;-83
2023/12/19 09:39:19;;;;;;;1238.57;984.25;;;8.60;99.90;;;;;;5069747;28;20044;-83
2023/12/19 09:41:45;;;;;;;1277.90;999.00;;;9.30;99.90;;;;;;5069602;28;20040;-83
2023/12/19 09:44:12;;;;;;;1327.28;996.92;;;9.40;99.90;;;;;;5069164;28;20036;-83
2023/12/19 09:46:38;;;;;;;1142.03;954.38;;;9.00;99.90;;;;;;5069383;28;20054;-83
2023/12/19 09:49:04;;;;;;;1152.00;960.08;;;9.70;99.90;;;;;;5069407;28;20036;-83
2023/12/19 09:51:32;;;;;;;1389.38;995.75;;;9.30;99.90;;;;;;5069473;28;20036;-83
2023/12/19 09:54:03;;;;;;;1245.90;981.47;;;8.70;99.90;;;;;;5069541;28;20036;-83
2023/12/19 09:56:29;;;;;;;1221.30;973.97;;;9.10;99.90;;;;;;5086668;28;20044;-83
2023/12/19 09:58:56;;;;;;;1324.25;991.55;;;8.70;99.90;;;;;;5068929;28;20040;-83
2023/12/19 10:01:22;;;;;;;1228.03;968.78;;;9.50;99.90;;;;;;5068903;28;20032;-83
2023/12/19 10:03:49;;;;;;;1295.88;989.38;;;8.90;99.90;;;;;;5069423;28;20051;-83
2023/12/19 10:06:17;;;;;;;1156.88;964.40;;;9.80;99.90;;;;;;5068389;28;20145;-83
2023/12/19 10:08:44;;;;;;;1216.38;974.75;;;8.80;99.90;;;;;;5084677;28;20239;-83
2023/12/19 10:11:18;;;;;;;1139.50;957.53;;;8.80;99.90;;;;;;5068822;28;20040;-83
2023/12/19 10:13:46;;;;;;;1196.25;956.28;;;9.30;99.90;;;;;;5069014;28;20043;-83
2023/12/19 10:16:20;;;;;;;1305.15;992.92;;;9.60;99.90;;;;;;5068273;28;20037;-83
2023/12/19 10:18:59;;;;;;;1236.55;978.13;;;9.70;99.90;;;;;;5060860;28;20037;-83
2023/12/19 10:21:28;;;;;;;1149.40;956.50;;;8.90;99.90;;;;;;5066351;28;20036;-83
2023/12/19 10:24:09;;;;;;;1249.80;975.30;;;9.10;99.90;;;;;;5084691;28;20064;-83
2023/12/19 10:26:34;;;;;;;1182.25;953.50;;;9.00;99.90;;;;;;5067142;28;20067;-83
2023/12/19 10:29:00;;;;;;;1243.05;979.55;;;9.30;99.90;;;;;;5068257;28;20043;-83
2023/12/19 10:31:25;;;;;;;1203.45;962.88;;;8.90;99.90;;;;;;5050850;28;20048;-83
2023/12/19 10:33:55;;;;;;;1222.70;965.17;;;9.00;99.90;;;;;;5067713;28;20064;-83
2023/12/19 10:36:26;;;;;;;1266.13;973.35;;;9.70;99.90;;;;;;5067646;28;20032;-83
2023/12/19 10:39:07;;;;;;;1264.18;961.65;;;9.00;99.90;;;;;;5074338;28;20024;-83
2023/12/19 10:41:36;;;;;;;1163.95;945.53;;;9.00;99.90;;;;;;5068440;28;20055;-83
2023/12/19 10:44:02;;;;;;;1232.53;973.80;;;9.70;99.90;;;;;;5079712;28;20027;-83
2023/12/19 10:46:30;;;;;;;1214.75;972.95;;;9.90;99.90;;;;;;5071142;28;20048;-83
2023/12/19 10:49:01;;;;;;;1180.30;960.33;;;9.10;99.90;;;;;;5067635;28;20048;-83
2023/12/19 10:51:33;;;;;;;1196.20;964.67;;;9.10;99.90;;;;;;5067552;28;20033;-83
2023/12/19 10:54:14;;;;;;;1127.78;936.55;;;9.10;99.90;;;;;;5080733;28;20050;-84
2023/12/19 10:56:52;;;;;;;1132.82;943.10;;;9.10;99.90;;;;;;5067574;28;20045;-83
2023/12/19 10:59:30;;;;;;;1213.57;948.35;;;9.10;99.90;;;;;;5084419;28;20055;-83
2023/12/19 11:02:31;;;;;;;1235.63;980.05;;;9.10;99.90;;;;;;5067729;28;20048;-83
2023/12/19 11:05:31;;;;;;;1180.85;952.75;;;9.20;99.90;;;;;;5068196;28;20057;-83
2023/12/19 11:08:09;;;;;;;1170.07;942.13;;;9.20;99.90;;;;;;5076959;28;20052;-83
2023/12/19 11:10:39;;;;;;;1183.47;958.58;;;9.20;99.90;;;;;;5067579;28;20056;-83
2023/12/19 11:13:05;;;;;;;1190.20;947.03;;;9.90;99.90;;;;;;5067550;28;20115;-83
2023/12/19 11:15:32;;;;;;;1084.72;920.35;;;9.50;99.90;;;;;;5067154;28;20094;-83
2023/12/19 11:18:05;;;;;;;1210.68;962.72;;;9.20;99.90;;;;;;5067188;28;20036;-83
2023/12/19 11:20:40;;;;;;;1193.00;956.42;;;9.20;99.90;;;;;;5079559;28;20044;-83
2023/12/19 11:23:40;;;;;;;1132.35;926.70;;;9.30;99.90;;;;;;5080143;28;20040;-83
2023/12/19 11:26:32;;;;;;;1198.60;944.00;;;9.30;99.90;;;;;;5062626;28;20071;-83
2023/12/19 11:28:58;;;;;;;1017.05;897.92;;;9.30;99.90;;;;;;5066627;28;20032;-83
2023/12/19 11:31:35;;;;;;;1075.38;921.28;;;9.30;99.90;;;;;;5066809;28;20036;-83
2023/12/19 11:34:22;;;;;;;1054.60;909.28;;;9.30;99.90;;;;;;5066450;28;20058;-83
2023/12/19 11:37:03;;;;;;;1052.68;915.03;;;9.30;99.90;;;;;;5060936;28;20044;-85
2023/12/19 11:39:33;;;;;;;1074.60;914.78;;;9.40;99.90;;;;;;5067226;28;20060;-83
2023/12/19 11:41:59;;;;;;;1062.53;915.13;;;10.00;99.90;;;;;;5066633;28;20044;-83
2023/12/19 11:44:38;;;;;;;1049.45;907.33;;;9.30;99.90;;;;;;5066360;28;20521;-83
2023/12/19 11:47:17;;;;;;;1047.53;918.47;;;9.40;99.90;;;;;;5062684;28;20290;-83
2023/12/19 11:49:46;;;;;;;1199.88;958.35;;;9.40;99.90;;;;;;5059585;28;20040;-83
2023/12/19 11:52:32;;;;;;;1121.97;934.38;;;9.90;99.90;;;;;;5066276;28;20033;-83
2023/12/19 11:55:00;;;;;;;1054.90;924.03;;;9.30;99.90;;;;;;5083195;28;20032;-83
2023/12/19 11:57:27;;;;;;;1051.32;907.90;;;10.20;99.90;;;;;;5083039;28;20306;-83
2023/12/19 11:59:54;;;;;;;1139.75;934.85;;;9.40;99.90;;;;;;5066381;28;20032;-83
2023/12/19 12:02:29;;;;;;;1062.78;913.83;;;9.70;99.90;;;;;;5065941;28;20036;-83
2023/12/19 12:05:13;;;;;;;1023.25;910.67;;;9.40;99.90;;;;;;5066526;28;20052;-83
2023/12/19 12:07:42;;;;;;;1188.78;929.63;;;9.40;99.90;;;;;;5065922;28;20041;-84
2023/12/19 12:10:09;;;;;;;1127.75;928.35;;;9.30;99.90;;;;;;5065444;28;20043;-83